Weather at Harmony Balloonport [CLOSED]

Public forecast

Using degrees Fahrenheit for public forecast. Weather courtesy of forecast.io.

Closest aviation weather report (METAR) to Harmony Balloonport

Closest report is Lehigh Valley International Airport, 14.8 nm (27.5 km) WSW. Retrieved 2021/06/25 03:51 UTC (35 minutes ago):

KABE 250351Z 00000KT 10SM CLR 16/08 A3033 RMK AO2 SLP271 T01610078

Closest aviation forecast (TAF) to Harmony Balloonport

Closest forecast is Lehigh Valley International Airport, 14.8 nm (27.5 km) WSW. Retrieved 2021-06-25 00:24 UTC (4 hours ago):

TAF KABE 242323Z 2500/2524 11006KT P6SM FEW250 FM250400 VRB02KT P6SM FEW250 FM251600 19007KT P6SM FEW040